DLH756 EDDF-VABB
Flight info
| Callsign | DLH756 |
|---|---|
| Flight time | N/A |
| Altitude | 37000 |
| Route | SULUS4L SULUS L984 OKG DCT PITOK DCT PERIT DCT BADOR DCT RILAS DCT REBLA DCT SOBSA DCT LAPKA DCT RIVOS DCT REVDA DCT UDROS DCT CRM UM11 EKTES UR317 REBLO P130 DOGAM/N0466F390 P130 MAMED B449 RANAH L750 ZB/N0474F380 G326 NH/N0470F390 N893 TELEM G210 BVR R458 BOFIN/N0469F400 DCT POKON DCT MB379 DCT EMROS |
| Aircraft | A346/H-SDE2E3FGHIJ3J4J5M1P2RWXYZ/LB1D1 |
Departure
| Time | N/A |
|---|---|
| Airport | Frankfurt Main Airport (EDDF) |
Arrival
| Time | 2026-04-29 01:21 |
|---|---|
| Airport | Chhatrapati Shivaji Maharaj International Airport (VABB) |
| Time | Latitude | Longitude | Altitude | Speed | Heading |
|---|---|---|---|---|---|
| 2026-04-29 01:06 | 19.34594 | 73.59931 | 22930 ft | 438 kts | 6° |
| 2026-04-29 01:07 | 19.37558 | 73.60023 | 21746 ft | 429 kts | 353° |
| 2026-04-29 01:07 | 19.40443 | 73.59393 | 20508 ft | 421 kts | 340° |
| 2026-04-29 01:07 | 19.43047 | 73.58065 | 19284 ft | 414 kts | 326° |
| 2026-04-29 01:07 | 19.45195 | 73.56126 | 18078 ft | 409 kts | 311° |
| 2026-04-29 01:08 | 19.46776 | 73.53655 | 16881 ft | 404 kts | 296° |
| 2026-04-29 01:08 | 19.47633 | 73.50871 | 15710 ft | 400 kts | 279° |
| 2026-04-29 01:08 | 19.47702 | 73.47984 | 14582 ft | 395 kts | 262° |
| 2026-04-29 01:08 | 19.46973 | 73.45243 | 13472 ft | 388 kts | 245° |
| 2026-04-29 01:09 | 19.45511 | 73.42910 | 12385 ft | 381 kts | 227° |
| 2026-04-29 01:09 | 19.43476 | 73.41222 | 11307 ft | 375 kts | 208° |
| 2026-04-29 01:09 | 19.41042 | 73.40337 | 10230 ft | 370 kts | 189° |
| 2026-04-29 01:09 | 19.38497 | 73.40217 | 9533 ft | 354 kts | 181° |
| 2026-04-29 01:10 | 19.36126 | 73.40272 | 9025 ft | 336 kts | 180° |
| 2026-04-29 01:10 | 19.33840 | 73.40350 | 8600 ft | 317 kts | 180° |
| 2026-04-29 01:10 | 19.31685 | 73.40436 | 8261 ft | 299 kts | 180° |
| 2026-04-29 01:10 | 19.29659 | 73.40520 | 7863 ft | 288 kts | 180° |
| 2026-04-29 01:11 | 19.27671 | 73.40608 | 7237 ft | 287 kts | 180° |
| 2026-04-29 01:11 | 19.25660 | 73.40702 | 6578 ft | 288 kts | 180° |
| 2026-04-29 01:11 | 19.23640 | 73.40801 | 6171 ft | 291 kts | 180° |
| 2026-04-29 01:11 | 19.21611 | 73.40852 | 6055 ft | 291 kts | 189° |
| 2026-04-29 01:12 | 19.19704 | 73.40223 | 6044 ft | 284 kts | 216° |
| 2026-04-29 01:12 | 19.18282 | 73.38840 | 6092 ft | 278 kts | 234° |
| 2026-04-29 01:12 | 19.17137 | 73.37194 | 6080 ft | 276 kts | 239° |
| 2026-04-29 01:12 | 19.16055 | 73.35519 | 6069 ft | 276 kts | 239° |
| 2026-04-29 01:13 | 19.14993 | 73.33850 | 6054 ft | 276 kts | 239° |
| 2026-04-29 01:13 | 19.13922 | 73.32159 | 6044 ft | 275 kts | 239° |
| 2026-04-29 01:13 | 19.12850 | 73.30472 | 6044 ft | 275 kts | 239° |
| 2026-04-29 01:13 | 19.11782 | 73.28796 | 6043 ft | 276 kts | 239° |
| 2026-04-29 01:14 | 19.10714 | 73.27110 | 6042 ft | 274 kts | 243° |
| 2026-04-29 01:14 | 19.09914 | 73.25340 | 6049 ft | 257 kts | 252° |
| 2026-04-29 01:14 | 19.09439 | 73.23597 | 6039 ft | 240 kts | 264° |
| 2026-04-29 01:14 | 19.09300 | 73.21896 | 6006 ft | 225 kts | 272° |
| 2026-04-29 01:15 | 19.09299 | 73.20267 | 5772 ft | 223 kts | 273° |
| 2026-04-29 01:15 | 19.09315 | 73.18624 | 5486 ft | 224 kts | 273° |
| 2026-04-29 01:15 | 19.09321 | 73.16978 | 5190 ft | 225 kts | 272° |
| 2026-04-29 01:15 | 19.09312 | 73.15329 | 4892 ft | 226 kts | 272° |
| 2026-04-29 01:16 | 19.09292 | 73.13663 | 4590 ft | 227 kts | 271° |
| 2026-04-29 01:16 | 19.09266 | 73.11989 | 4295 ft | 228 kts | 271° |
| 2026-04-29 01:16 | 19.09237 | 73.10321 | 4003 ft | 228 kts | 271° |
| 2026-04-29 01:16 | 19.09206 | 73.08659 | 3709 ft | 226 kts | 271° |
| 2026-04-29 01:17 | 19.09176 | 73.07036 | 3406 ft | 213 kts | 272° |
| 2026-04-29 01:17 | 19.09149 | 73.05513 | 3149 ft | 202 kts | 272° |
| 2026-04-29 01:17 | 19.09126 | 73.04082 | 2910 ft | 191 kts | 271° |
| 2026-04-29 01:17 | 19.09104 | 73.02707 | 2673 ft | 181 kts | 271° |
| 2026-04-29 01:18 | 19.09084 | 73.01432 | 2438 ft | 165 kts | 271° |
| 2026-04-29 01:18 | 19.09049 | 72.99097 | 2054 ft | 153 kts | 270° |
| 2026-04-29 01:18 | 19.09033 | 72.97972 | 1869 ft | 153 kts | 270° |
| 2026-04-29 01:19 | 19.09016 | 72.96854 | 1684 ft | 153 kts | 270° |
| 2026-04-29 01:19 | 19.08997 | 72.95735 | 1499 ft | 153 kts | 271° |
| 2026-04-29 01:19 | 19.08999 | 72.94607 | 1294 ft | 153 kts | 269° |
| 2026-04-29 01:19 | 19.08971 | 72.93491 | 1088 ft | 152 kts | 269° |
| 2026-04-29 01:20 | 19.08946 | 72.92374 | 885 ft | 152 kts | 269° |
| 2026-04-29 01:20 | 19.08929 | 72.91257 | 689 ft | 151 kts | 270° |
| 2026-04-29 01:20 | 19.08925 | 72.90151 | 513 ft | 151 kts | 270° |
| 2026-04-29 01:20 | 19.08909 | 72.89039 | 325 ft | 151 kts | 269° |
| 2026-04-29 01:21 | 19.08884 | 72.87927 | 129 ft | 150 kts | 269° |
| 2026-04-29 01:21 | 19.08865 | 72.86874 | 39 ft | 126 kts | 269° |
| 2026-04-29 01:21 | 19.08863 | 72.86181 | 40 ft | 61 kts | 269° |
| 2026-04-29 01:21 | 19.08902 | 72.85925 | 37 ft | 26 kts | 300° |
| 2026-04-29 01:22 | 19.08968 | 72.85817 | 37 ft | 11 kts | 321° |
| 2026-04-29 01:22 | 19.09016 | 72.85822 | 37 ft | 6 kts | 71° |
| 2026-04-29 01:22 | 19.09026 | 72.85879 | 38 ft | 8 kts | 85° |
| 2026-04-29 01:22 | 19.09032 | 72.85951 | 40 ft | 10 kts | 85° |
| 2026-04-29 01:23 | 19.09034 | 72.86040 | 40 ft | 13 kts | 90° |
| 2026-04-29 01:23 | 19.09034 | 72.86150 | 40 ft | 16 kts | 90° |
| 2026-04-29 01:23 | 19.09037 | 72.86279 | 40 ft | 18 kts | 83° |
| 2026-04-29 01:23 | 19.09101 | 72.86387 | 42 ft | 18 kts | 49° |
| 2026-04-29 01:24 | 19.09190 | 72.86494 | 41 ft | 20 kts | 49° |
| 2026-04-29 01:24 | 19.09286 | 72.86607 | 43 ft | 21 kts | 49° |
| 2026-04-29 01:24 | 19.09386 | 72.86728 | 45 ft | 15 kts | 49° |
| 2026-04-29 01:24 | 19.09421 | 72.86793 | 45 ft | 11 kts | 85° |
| 2026-04-29 01:25 | 19.09410 | 72.86874 | 44 ft | 11 kts | 99° |
| 2026-04-29 01:25 | 19.09392 | 72.86960 | 44 ft | 9 kts | 102° |
| 2026-04-29 01:25 | 19.09386 | 72.86993 | 44 ft | 0 kts | 102° |